createdAt,value
2022-08-04T00:02:03.438Z,25.30
2022-08-04T00:04:40.294Z,25.30
2022-08-04T00:07:42.505Z,25.30
2022-08-04T00:10:11.449Z,25.20
2022-08-04T00:12:43.345Z,25.20
2022-08-04T00:15:15.075Z,25.20
2022-08-04T00:17:51.774Z,25.20
2022-08-04T00:20:21.131Z,25.10
2022-08-04T00:22:49.314Z,25.10
2022-08-04T00:25:16.473Z,25.10
2022-08-04T00:27:43.976Z,25.10
2022-08-04T00:30:10.849Z,25.10
2022-08-04T00:32:41.146Z,25.10
2022-08-04T00:35:12.856Z,25.00
2022-08-04T00:37:40.530Z,25.00
2022-08-04T00:40:24.805Z,25.10
2022-08-04T00:43:12.864Z,25.00
2022-08-04T00:46:15.316Z,25.00
2022-08-04T00:48:58.474Z,25.10
2022-08-04T00:52:32.083Z,25.10
2022-08-04T00:55:11.648Z,25.10
2022-08-04T00:58:00.059Z,25.10
2022-08-04T01:00:28.089Z,25.10
2022-08-04T01:03:16.745Z,25.10
2022-08-04T01:06:03.581Z,25.00
2022-08-04T01:08:30.216Z,25.00
2022-08-04T01:11:28.522Z,24.90
2022-08-04T01:14:11.765Z,24.90
2022-08-04T01:16:48.200Z,24.90
2022-08-04T01:19:26.475Z,24.80
2022-08-04T01:22:05.532Z,24.70
2022-08-04T01:25:00.393Z,24.60
2022-08-04T01:27:49.129Z,24.60
2022-08-04T01:30:16.501Z,24.60
2022-08-04T01:32:55.436Z,24.50
2022-08-04T01:35:46.862Z,24.50
2022-08-04T01:38:35.608Z,24.40
2022-08-04T01:41:10.573Z,24.40
2022-08-04T01:43:46.277Z,24.50
2022-08-04T01:46:15.256Z,24.50
2022-08-04T01:48:45.814Z,24.50
2022-08-04T01:51:13.025Z,24.60
2022-08-04T01:53:43.035Z,24.50
2022-08-04T01:56:11.824Z,24.50
2022-08-04T01:58:40.496Z,24.50
2022-08-04T02:01:13.527Z,24.50
2022-08-04T02:04:18.901Z,24.50
2022-08-04T02:07:00.968Z,24.50
2022-08-04T02:09:53.943Z,24.40
2022-08-04T02:12:48.759Z,24.40
2022-08-04T02:15:50.681Z,24.40
2022-08-04T02:18:24.799Z,24.40
2022-08-04T02:20:57.852Z,24.30
2022-08-04T02:23:36.688Z,24.40
2022-08-04T02:26:22.141Z,24.50
2022-08-04T02:29:04.500Z,24.50
2022-08-04T02:31:32.594Z,24.50
2022-08-04T02:34:13.967Z,24.50
2022-08-04T02:36:42.571Z,24.50
2022-08-04T02:39:13.708Z,24.40
2022-08-04T02:41:40.728Z,24.50
2022-08-04T02:44:10.288Z,24.50
2022-08-04T02:46:39.263Z,24.40
2022-08-04T02:49:10.897Z,24.30
2022-08-04T02:51:41.722Z,24.30
2022-08-04T02:54:09.329Z,24.30
2022-08-04T02:56:38.750Z,24.20
2022-08-04T02:59:11.975Z,24.20
2022-08-04T03:01:56.488Z,24.10
2022-08-04T03:04:57.280Z,24.10
2022-08-04T03:07:51.858Z,24.00
2022-08-04T03:10:46.939Z,24.00
2022-08-04T03:13:48.319Z,24.00
2022-08-04T03:16:41.056Z,24.00
2022-08-04T03:19:29.096Z,24.00
2022-08-04T03:22:25.492Z,23.90
2022-08-04T03:25:26.379Z,23.90
2022-08-04T03:28:17.898Z,23.90
2022-08-04T03:31:14.586Z,23.90
2022-08-04T03:34:16.197Z,23.90
2022-08-04T03:37:03.357Z,23.70
2022-08-04T03:39:49.366Z,23.70
2022-08-04T03:42:30.490Z,23.70
2022-08-04T03:45:40.733Z,23.60
2022-08-04T03:48:27.230Z,23.60
2022-08-04T03:51:34.960Z,23.60
2022-08-04T03:54:44.651Z,23.50
2022-08-04T03:57:47.489Z,23.50
2022-08-04T04:00:25.901Z,23.50
2022-08-04T04:03:28.276Z,23.40
2022-08-04T04:06:05.110Z,23.40
2022-08-04T04:09:16.131Z,23.40
2022-08-04T04:12:14.605Z,23.30
2022-08-04T04:15:10.282Z,23.30
2022-08-04T04:18:18.321Z,23.30
2022-08-04T04:21:21.754Z,23.30
2022-08-04T04:24:02.401Z,23.30
2022-08-04T04:26:51.879Z,23.20
2022-08-04T04:29:25.582Z,23.20
2022-08-04T04:32:03.642Z,23.20
2022-08-04T04:34:44.185Z,23.30
2022-08-04T04:37:19.780Z,23.30
2022-08-04T04:40:12.615Z,23.30
2022-08-04T04:42:50.308Z,23.30
2022-08-04T04:45:41.182Z,23.40
2022-08-04T04:48:17.646Z,23.30
2022-08-04T04:51:10.760Z,23.40
2022-08-04T04:54:06.447Z,23.50
2022-08-04T04:56:40.834Z,23.50
2022-08-04T04:59:15.502Z,23.60
2022-08-04T05:02:09.306Z,23.60
2022-08-04T05:05:06.686Z,23.60
2022-08-04T05:08:40.971Z,23.70
2022-08-04T05:11:10.089Z,23.70
2022-08-04T05:14:37.448Z,23.80
2022-08-04T05:17:01.344Z,23.80
2022-08-04T05:19:43.772Z,23.80
2022-08-04T05:22:18.798Z,23.80
2022-08-04T05:24:48.641Z,23.90
2022-08-04T05:27:21.527Z,24.00
2022-08-04T05:29:54.540Z,24.10
2022-08-04T05:32:29.108Z,24.10
2022-08-04T05:35:04.322Z,24.20
2022-08-04T05:37:35.994Z,24.20
2022-08-04T05:40:05.917Z,24.20
2022-08-04T05:42:37.732Z,24.30
2022-08-04T05:45:06.121Z,24.30
2022-08-04T05:47:34.717Z,24.40
2022-08-04T05:50:04.210Z,24.50
2022-08-04T05:52:34.442Z,24.60
2022-08-04T05:55:02.769Z,24.80
2022-08-04T05:57:30.197Z,24.90
2022-08-04T06:00:00.211Z,25.10
2022-08-04T06:02:28.989Z,25.30
2022-08-04T06:04:57.645Z,25.50
2022-08-04T06:07:26.394Z,25.70
2022-08-04T06:09:53.529Z,25.90
2022-08-04T06:12:25.821Z,26.20
2022-08-04T06:14:55.148Z,26.40
2022-08-04T06:18:35.253Z,26.80
2022-08-04T06:20:23.447Z,27.20
2022-08-04T06:22:57.468Z,27.50
2022-08-04T06:25:28.195Z,27.80
2022-08-04T06:27:56.057Z,28.10
2022-08-04T06:30:26.953Z,28.40
2022-08-04T06:33:03.947Z,28.60
2022-08-04T06:35:33.190Z,29.00
2022-08-04T06:38:01.616Z,29.20
2022-08-04T06:40:30.847Z,29.10
2022-08-04T06:43:02.179Z,29.30
2022-08-04T06:45:29.361Z,29.30
2022-08-04T06:47:56.585Z,29.30
2022-08-04T06:51:27.049Z,29.30
2022-08-04T06:53:11.690Z,29.40
2022-08-04T06:55:40.792Z,29.30
2022-08-04T06:58:08.506Z,29.30
2022-08-04T07:00:37.833Z,29.30
2022-08-04T07:03:05.446Z,29.30
2022-08-04T07:05:32.677Z,29.40
2022-08-04T07:07:59.992Z,29.20
2022-08-04T07:10:30.705Z,29.30
2022-08-04T07:12:58.618Z,29.20
2022-08-04T07:15:26.660Z,29.10
2022-08-04T07:17:54.644Z,29.10
2022-08-04T07:20:34.313Z,29.30
2022-08-04T07:23:07.071Z,29.40
2022-08-04T07:26:00.537Z,29.50
2022-08-04T07:28:25.563Z,29.50
2022-08-04T07:30:53.891Z,29.60
2022-08-04T07:33:22.345Z,29.70
2022-08-04T07:36:04.885Z,29.90
2022-08-04T07:38:48.424Z,30.00
2022-08-04T07:41:39.084Z,30.10
2022-08-04T07:44:07.865Z,30.10
2022-08-04T07:46:36.028Z,30.40
2022-08-04T07:49:04.118Z,30.50
2022-08-04T07:51:31.798Z,30.60
2022-08-04T07:54:11.015Z,30.70
2022-08-04T07:56:39.364Z,30.90
2022-08-04T07:59:06.756Z,30.90
2022-08-04T08:01:36.480Z,31.00
2022-08-04T08:04:07.351Z,31.30
2022-08-04T08:06:42.645Z,31.60
2022-08-04T08:09:24.061Z,31.80
2022-08-04T08:12:35.823Z,31.90
2022-08-04T08:14:39.589Z,31.80
2022-08-04T08:17:06.405Z,31.80
2022-08-04T08:19:34.774Z,32.00
2022-08-04T08:22:02.136Z,32.30
2022-08-04T08:24:30.449Z,32.30
2022-08-04T08:26:58.640Z,32.60
2022-08-04T08:29:26.193Z,32.70
2022-08-04T08:31:55.919Z,32.70
2022-08-04T08:34:28.128Z,33.10
2022-08-04T08:37:02.017Z,33.30
2022-08-04T08:39:45.942Z,33.40
2022-08-04T08:42:24.660Z,33.60
2022-08-04T08:45:17.880Z,33.80
2022-08-04T08:48:22.458Z,33.80
2022-08-04T08:50:52.725Z,33.90
2022-08-04T08:53:58.704Z,33.90
2022-08-04T08:56:52.953Z,34.10
2022-08-04T08:59:50.478Z,34.20
2022-08-04T09:02:29.338Z,34.40
2022-08-04T09:05:20.629Z,34.50
2022-08-04T09:08:16.228Z,34.50
2022-08-04T09:10:51.125Z,34.50
2022-08-04T09:13:26.599Z,34.70
2022-08-04T09:16:18.918Z,34.70
2022-08-04T09:19:37.304Z,34.70
2022-08-04T09:22:28.162Z,34.90
2022-08-04T09:25:04.785Z,35.20
2022-08-04T09:27:37.293Z,35.30
2022-08-04T09:30:12.687Z,35.10
2022-08-04T09:32:39.478Z,35.30
2022-08-04T09:35:24.090Z,35.40
2022-08-04T09:38:11.740Z,35.30
2022-08-04T09:41:20.796Z,35.20
2022-08-04T09:44:52.681Z,35.10
2022-08-04T09:47:40.556Z,35.00
2022-08-04T09:50:17.454Z,34.90
2022-08-04T09:53:03.002Z,35.10
2022-08-04T09:55:53.157Z,35.20
2022-08-04T09:58:39.638Z,35.10
2022-08-04T10:01:23.065Z,35.00
2022-08-04T10:03:54.924Z,35.10
2022-08-04T10:07:02.397Z,35.10
2022-08-04T10:09:49.878Z,35.50
2022-08-04T10:12:31.316Z,35.30
2022-08-04T10:15:09.377Z,35.30
2022-08-04T10:17:57.042Z,35.40
2022-08-04T10:20:49.362Z,35.60
2022-08-04T10:24:11.441Z,35.80
2022-08-04T10:26:57.377Z,35.90
2022-08-04T10:29:46.510Z,35.70
2022-08-04T10:32:19.284Z,35.70
2022-08-04T10:35:11.297Z,35.50
2022-08-04T10:38:01.324Z,35.50
2022-08-04T10:40:45.347Z,35.50
2022-08-04T10:43:22.027Z,35.20
2022-08-04T10:46:06.617Z,35.30
2022-08-04T10:48:41.850Z,35.50
2022-08-04T10:51:12.292Z,35.40
2022-08-04T10:53:40.058Z,35.40
2022-08-04T10:56:30.072Z,35.30
2022-08-04T10:59:03.243Z,35.20
2022-08-04T11:02:00.810Z,35.40
2022-08-04T11:04:48.644Z,35.40
2022-08-04T11:07:16.673Z,35.40
2022-08-04T11:09:44.887Z,35.70
2022-08-04T11:12:19.007Z,35.70
2022-08-04T11:14:57.214Z,35.80
2022-08-04T11:17:33.610Z,35.60
2022-08-04T11:23:14.577Z,35.70
2022-08-04T11:26:09.562Z,35.80
2022-08-04T11:29:03.598Z,35.80
2022-08-04T11:31:39.375Z,36.00
2022-08-04T11:34:26.254Z,36.00
2022-08-04T11:37:18.946Z,35.70
2022-08-04T11:40:15.811Z,35.80
2022-08-04T11:42:55.115Z,35.90
2022-08-04T11:45:32.114Z,35.90
2022-08-04T11:48:04.616Z,35.90
2022-08-04T11:50:41.594Z,35.70
2022-08-04T11:53:10.727Z,35.70
2022-08-04T11:56:07.023Z,35.50
2022-08-04T11:58:26.129Z,35.40
2022-08-04T12:00:55.860Z,35.40
2022-08-04T12:04:03.507Z,35.40
2022-08-04T12:06:36.987Z,35.50
2022-08-04T12:09:42.616Z,35.50
2022-08-04T12:12:30.623Z,35.40
2022-08-04T12:15:28.471Z,35.30
2022-08-04T12:18:04.302Z,35.10
2022-08-04T12:20:45.350Z,35.10
2022-08-04T12:23:29.666Z,35.00
2022-08-04T12:26:02.941Z,34.80
2022-08-04T12:29:07.130Z,34.50
2022-08-04T12:31:36.589Z,34.50
2022-08-04T12:34:32.059Z,34.50
2022-08-04T12:37:02.734Z,34.50
2022-08-04T12:39:31.757Z,34.30
2022-08-04T12:42:22.367Z,34.20
2022-08-04T12:44:54.056Z,34.10
2022-08-04T12:47:36.385Z,33.80
2022-08-04T12:50:06.725Z,34.00
2022-08-04T12:55:31.814Z,33.90
2022-08-04T12:58:00.061Z,34.10
2022-08-04T13:00:40.782Z,34.10
2022-08-04T13:03:14.565Z,34.10
2022-08-04T13:05:42.854Z,34.00
2022-08-04T13:08:14.194Z,34.00
2022-08-04T13:10:45.505Z,33.90
2022-08-04T13:13:17.533Z,33.90
2022-08-04T13:15:56.747Z,33.80
2022-08-04T13:18:30.087Z,33.70
2022-08-04T13:21:20.259Z,33.60
2022-08-04T13:24:10.858Z,33.70
2022-08-04T13:26:58.139Z,33.80
2022-08-04T13:30:00.124Z,33.80
2022-08-04T13:32:31.406Z,33.60
2022-08-04T13:35:01.442Z,33.40
2022-08-04T13:37:35.932Z,33.30
2022-08-04T13:40:05.515Z,33.20
2022-08-04T13:42:35.824Z,33.20
2022-08-04T13:45:06.923Z,33.20
2022-08-04T13:47:37.942Z,33.30
2022-08-04T13:50:16.193Z,33.30
2022-08-04T13:52:44.873Z,33.20
2022-08-04T13:55:33.301Z,33.20
2022-08-04T13:58:14.330Z,33.20
2022-08-04T14:00:53.528Z,33.20
2022-08-04T14:03:54.037Z,33.30
2022-08-04T14:06:43.437Z,33.50
2022-08-04T14:09:14.919Z,33.60
2022-08-04T14:12:08.841Z,33.80
2022-08-04T14:14:32.208Z,33.90
2022-08-04T14:17:04.618Z,33.80
2022-08-04T14:19:58.705Z,33.70
2022-08-04T14:22:29.933Z,33.60
2022-08-04T14:25:15.544Z,33.50
2022-08-04T14:27:43.286Z,33.60
2022-08-04T14:30:30.957Z,33.60
2022-08-04T14:34:04.177Z,33.70
2022-08-04T14:36:04.314Z,33.60
2022-08-04T14:38:53.712Z,33.60
2022-08-04T14:41:27.201Z,33.50
2022-08-04T14:43:57.018Z,33.50
2022-08-04T14:46:30.226Z,33.50
2022-08-04T14:49:10.077Z,33.60
2022-08-04T14:51:42.962Z,33.60
2022-08-04T14:54:17.315Z,33.60
2022-08-04T14:56:58.188Z,33.60
2022-08-04T14:59:25.611Z,33.40
2022-08-04T15:02:00.680Z,33.50
2022-08-04T15:04:29.798Z,33.50
2022-08-04T15:06:56.812Z,33.60
2022-08-04T15:09:23.854Z,33.50
2022-08-04T15:11:50.609Z,33.50
2022-08-04T15:14:36.190Z,33.30
2022-08-04T15:17:11.513Z,33.20
2022-08-04T15:19:40.273Z,32.90
2022-08-04T15:22:17.638Z,32.90
2022-08-04T15:24:44.678Z,33.00
2022-08-04T15:27:21.437Z,33.00
2022-08-04T15:30:00.095Z,33.00
2022-08-04T15:32:32.000Z,32.80
2022-08-04T15:35:09.245Z,32.70
2022-08-04T15:37:56.873Z,32.60
2022-08-04T15:40:52.524Z,32.70
2022-08-04T15:43:55.446Z,32.50
2022-08-04T15:46:49.362Z,32.50
2022-08-04T15:49:23.330Z,32.40
2022-08-04T15:52:02.038Z,32.40
2022-08-04T15:54:32.787Z,32.40
2022-08-04T15:57:01.317Z,32.30
2022-08-04T16:00:02.275Z,32.30
2022-08-04T16:02:40.504Z,32.20
2022-08-04T16:05:18.509Z,32.10
2022-08-04T16:08:09.271Z,32.10
2022-08-04T16:10:38.068Z,32.10
2022-08-04T16:13:08.590Z,32.00
2022-08-04T16:15:42.994Z,32.00
2022-08-04T16:18:25.807Z,31.80
2022-08-04T16:21:02.288Z,31.80
2022-08-04T16:23:56.858Z,31.80
2022-08-04T16:26:42.367Z,31.70
2022-08-04T16:29:37.688Z,31.60
2022-08-04T16:32:04.570Z,31.50
2022-08-04T16:34:53.781Z,31.60
2022-08-04T16:37:20.429Z,31.40
2022-08-04T16:39:50.100Z,31.40
2022-08-04T16:42:32.665Z,31.30
2022-08-04T16:45:00.857Z,31.20
2022-08-04T16:47:49.348Z,31.00
2022-08-04T16:50:20.047Z,30.90
2022-08-04T16:52:54.226Z,30.90
2022-08-04T16:55:28.516Z,30.50
2022-08-04T16:57:59.003Z,30.50
2022-08-04T17:00:34.156Z,30.50
2022-08-04T17:03:09.503Z,30.40
2022-08-04T17:05:38.507Z,30.30
2022-08-04T17:08:29.145Z,30.20
2022-08-04T17:10:55.102Z,30.10
2022-08-04T17:14:02.708Z,30.00
2022-08-04T17:16:18.256Z,30.00
2022-08-04T17:18:48.250Z,30.00
2022-08-04T17:21:22.153Z,30.20
2022-08-04T17:24:13.299Z,30.30
2022-08-04T17:26:51.861Z,30.30
2022-08-04T17:29:43.286Z,30.30
2022-08-04T17:32:20.801Z,30.20
2022-08-04T17:37:52.977Z,30.20
2022-08-04T17:40:25.725Z,30.10
2022-08-04T17:44:05.193Z,29.90
2022-08-04T17:46:16.306Z,29.80
2022-08-04T17:48:56.725Z,29.60
2022-08-04T17:51:53.150Z,29.50
2022-08-04T17:54:37.351Z,29.60
2022-08-04T18:00:07.841Z,29.60
2022-08-04T18:02:53.437Z,29.60
2022-08-04T18:05:54.194Z,29.60
2022-08-04T18:08:39.595Z,29.60
2022-08-04T18:11:18.871Z,29.70
2022-08-04T18:13:54.107Z,29.70
2022-08-04T18:16:23.850Z,29.70
2022-08-04T18:19:14.432Z,29.60
2022-08-04T18:21:46.462Z,29.70
2022-08-04T18:24:34.075Z,29.70
2022-08-04T18:27:16.394Z,29.70
2022-08-04T18:30:14.527Z,29.80
2022-08-04T18:32:33.318Z,29.70
2022-08-04T18:35:03.526Z,29.60
2022-08-04T18:38:05.428Z,29.60
2022-08-04T18:40:26.611Z,29.60
2022-08-04T18:43:00.009Z,29.60
2022-08-04T18:45:34.353Z,29.60
2022-08-04T18:48:06.659Z,29.50
2022-08-04T18:51:10.258Z,29.50
2022-08-04T18:53:35.160Z,29.50
2022-08-04T18:56:03.965Z,29.50
2022-08-04T18:58:33.687Z,29.40
2022-08-04T19:01:01.203Z,29.30
2022-08-04T19:03:33.004Z,29.30
2022-08-04T19:06:01.395Z,29.20
2022-08-04T19:08:33.832Z,29.10
2022-08-04T19:11:36.979Z,29.00
2022-08-04T19:13:57.641Z,28.90
2022-08-04T19:16:29.027Z,28.70
2022-08-04T19:19:02.872Z,28.70
2022-08-04T19:22:01.423Z,28.70
2022-08-04T19:24:32.062Z,28.60
2022-08-04T19:27:07.093Z,28.60
2022-08-04T19:29:37.172Z,28.50
2022-08-04T19:32:13.989Z,28.40
2022-08-04T19:34:46.031Z,28.40
2022-08-04T19:38:01.117Z,28.30
2022-08-04T19:40:10.080Z,28.20
2022-08-04T19:42:37.525Z,28.20
2022-08-04T19:45:06.180Z,28.20
2022-08-04T19:48:11.674Z,28.10
2022-08-04T19:50:20.154Z,28.00
2022-08-04T19:52:51.933Z,27.90
2022-08-04T19:55:37.264Z,27.80
2022-08-04T19:58:07.297Z,27.70
2022-08-04T20:00:35.609Z,27.70
2022-08-04T20:05:54.821Z,27.60
2022-08-04T20:08:24.238Z,27.60
2022-08-04T20:10:52.623Z,27.50
2022-08-04T20:13:22.037Z,27.40
2022-08-04T20:15:57.962Z,27.30
2022-08-04T20:18:35.624Z,27.30
2022-08-04T20:21:11.393Z,27.30
2022-08-04T20:23:48.345Z,27.30
2022-08-04T20:26:16.957Z,27.10
2022-08-04T20:28:45.901Z,27.10
2022-08-04T20:31:18.727Z,27.00
2022-08-04T20:33:49.371Z,27.00
2022-08-04T20:36:21.752Z,26.90
2022-08-04T20:38:53.036Z,26.80
2022-08-04T20:41:23.194Z,26.90
2022-08-04T20:43:50.788Z,26.80
2022-08-04T20:46:29.280Z,26.70
2022-08-04T20:48:57.714Z,26.70
2022-08-04T20:51:31.880Z,26.70
2022-08-04T20:54:04.582Z,26.70
2022-08-04T20:56:44.941Z,26.60
2022-08-04T20:59:17.508Z,26.60
2022-08-04T21:01:45.372Z,26.50
2022-08-04T21:04:31.336Z,26.40
2022-08-04T21:06:59.270Z,26.40
2022-08-04T21:09:38.162Z,26.30
2022-08-04T21:12:10.708Z,26.40
2022-08-04T21:14:53.902Z,26.30
2022-08-04T21:17:21.113Z,26.20
2022-08-04T21:20:08.508Z,26.20
2022-08-04T21:22:39.900Z,26.10
2022-08-04T21:25:08.034Z,26.10
2022-08-04T21:27:43.642Z,26.00
2022-08-04T21:30:25.060Z,26.00
2022-08-04T21:32:55.293Z,26.00
2022-08-04T21:38:17.093Z,26.00
2022-08-04T21:40:55.618Z,25.90
2022-08-04T21:43:27.448Z,25.90
2022-08-04T21:45:55.938Z,25.90
2022-08-04T21:48:27.250Z,25.90
2022-08-04T21:50:55.027Z,25.80
2022-08-04T21:53:22.208Z,25.80
2022-08-04T21:56:04.784Z,25.60
2022-08-04T21:58:34.647Z,25.60
2022-08-04T22:03:52.351Z,25.50
2022-08-04T22:06:20.880Z,25.40
2022-08-04T22:08:56.026Z,25.50
2022-08-04T22:11:26.057Z,25.40
2022-08-04T22:14:10.934Z,25.40
2022-08-04T22:16:39.835Z,25.40
2022-08-04T22:19:07.131Z,25.30
2022-08-04T22:21:39.174Z,25.30
2022-08-04T22:24:14.095Z,25.30
2022-08-04T22:26:41.327Z,25.20
2022-08-04T22:29:14.588Z,25.20
2022-08-04T22:31:53.362Z,25.10
2022-08-04T22:34:24.202Z,25.10
2022-08-04T22:36:51.137Z,25.10
2022-08-04T22:39:23.577Z,25.00
2022-08-04T22:42:03.847Z,24.90
2022-08-04T22:44:32.367Z,24.80
2022-08-04T22:47:00.974Z,24.80
2022-08-04T22:49:31.941Z,24.80
2022-08-04T22:51:59.958Z,24.90
2022-08-04T22:54:36.826Z,24.80
2022-08-04T22:57:04.286Z,24.90
2022-08-04T22:59:31.441Z,24.90
2022-08-04T23:02:00.559Z,24.90
2022-08-04T23:04:30.813Z,24.80
2022-08-04T23:06:57.958Z,24.70
2022-08-04T23:09:49.035Z,24.60
2022-08-04T23:12:24.259Z,24.50
2022-08-04T23:14:54.762Z,24.30
2022-08-04T23:17:22.135Z,24.20
2022-08-04T23:19:58.111Z,24.10
2022-08-04T23:22:41.698Z,23.90
2022-08-04T23:25:16.170Z,23.70
2022-08-04T23:27:50.726Z,23.60
2022-08-04T23:30:29.476Z,23.70
2022-08-04T23:32:58.144Z,23.70
2022-08-04T23:35:24.960Z,23.50
2022-08-04T23:37:57.361Z,23.20
2022-08-04T23:40:29.952Z,23.00
2022-08-04T23:43:17.295Z,22.90
2022-08-04T23:46:04.953Z,22.80
2022-08-04T23:48:33.311Z,22.80
2022-08-04T23:51:14.871Z,22.60
2022-08-04T23:54:01.841Z,22.60
2022-08-04T23:56:34.301Z,22.50
2022-08-04T23:59:04.016Z,22.50
